sensor_id;sensor_type;location;lat;lon;timestamp;P1;durP1;ratioP1;P2;durP2;ratioP2
23222;SDS011;11780;13.904;100.620;2022-07-23T00:01:06;10.60;;;7.78;;
23222;SDS011;11780;13.904;100.620;2022-07-23T00:03:37;16.88;;;9.70;;
23222;SDS011;11780;13.904;100.620;2022-07-23T00:06:07;13.27;;;8.73;;
23222;SDS011;11780;13.904;100.620;2022-07-23T00:08:37;15.68;;;9.40;;
23222;SDS011;11780;13.904;100.620;2022-07-23T00:11:07;14.80;;;8.63;;
23222;SDS011;11780;13.904;100.620;2022-07-23T00:13:37;13.45;;;7.97;;
23222;SDS011;11780;13.904;100.620;2022-07-23T00:16:08;10.57;;;7.70;;
23222;SDS011;11780;13.904;100.620;2022-07-23T00:18:38;15.98;;;9.88;;
23222;SDS011;11780;13.904;100.620;2022-07-23T00:21:08;15.68;;;10.70;;
23222;SDS011;11780;13.904;100.620;2022-07-23T00:23:38;19.60;;;10.20;;
23222;SDS011;11780;13.904;100.620;2022-07-23T00:26:08;19.00;;;11.02;;
23222;SDS011;11780;13.904;100.620;2022-07-23T00:28:39;17.65;;;10.25;;
23222;SDS011;11780;13.904;100.620;2022-07-23T00:31:09;12.93;;;9.88;;
23222;SDS011;11780;13.904;100.620;2022-07-23T00:33:39;17.38;;;10.30;;
23222;SDS011;11780;13.904;100.620;2022-07-23T00:36:10;18.23;;;9.20;;
23222;SDS011;11780;13.904;100.620;2022-07-23T00:38:40;14.05;;;8.30;;
23222;SDS011;11780;13.904;100.620;2022-07-23T00:41:10;14.15;;;7.65;;
23222;SDS011;11780;13.904;100.620;2022-07-23T00:43:41;13.13;;;6.60;;
23222;SDS011;11780;13.904;100.620;2022-07-23T00:46:11;11.63;;;7.07;;
23222;SDS011;11780;13.904;100.620;2022-07-23T00:48:42;12.38;;;6.72;;
23222;SDS011;11780;13.904;100.620;2022-07-23T00:51:12;10.57;;;6.38;;
23222;SDS011;11780;13.904;100.620;2022-07-23T00:53:42;11.13;;;6.78;;
23222;SDS011;11780;13.904;100.620;2022-07-23T00:56:14;12.70;;;7.07;;
23222;SDS011;11780;13.904;100.620;2022-07-23T00:58:45;15.70;;;7.93;;
23222;SDS011;11780;13.904;100.620;2022-07-23T01:01:16;9.07;;;5.93;;
23222;SDS011;11780;13.904;100.620;2022-07-23T01:03:46;11.30;;;6.07;;
23222;SDS011;11780;13.904;100.620;2022-07-23T01:06:17;15.52;;;8.27;;
23222;SDS011;11780;13.904;100.620;2022-07-23T01:08:48;16.08;;;7.50;;
23222;SDS011;11780;13.904;100.620;2022-07-23T01:11:18;11.82;;;7.47;;
23222;SDS011;11780;13.904;100.620;2022-07-23T01:13:49;18.63;;;9.75;;
23222;SDS011;11780;13.904;100.620;2022-07-23T01:16:19;21.20;;;9.30;;
23222;SDS011;11780;13.904;100.620;2022-07-23T01:18:49;12.68;;;8.45;;
23222;SDS011;11780;13.904;100.620;2022-07-23T01:21:19;20.08;;;9.02;;
23222;SDS011;11780;13.904;100.620;2022-07-23T01:23:50;15.77;;;9.00;;
23222;SDS011;11780;13.904;100.620;2022-07-23T01:26:20;14.05;;;6.65;;
23222;SDS011;11780;13.904;100.620;2022-07-23T01:28:50;13.25;;;8.35;;
23222;SDS011;11780;13.904;100.620;2022-07-23T01:31:20;14.95;;;8.65;;
23222;SDS011;11780;13.904;100.620;2022-07-23T01:33:57;15.50;;;8.30;;
23222;SDS011;11780;13.904;100.620;2022-07-23T01:36:28;15.67;;;9.60;;
23222;SDS011;11780;13.904;100.620;2022-07-23T01:38:58;12.80;;;8.23;;
23222;SDS011;11780;13.904;100.620;2022-07-23T01:41:29;12.93;;;9.23;;
23222;SDS011;11780;13.904;100.620;2022-07-23T01:44:02;13.43;;;9.10;;
23222;SDS011;11780;13.904;100.620;2022-07-23T01:46:33;13.38;;;7.68;;
23222;SDS011;11780;13.904;100.620;2022-07-23T01:49:05;15.02;;;8.52;;
23222;SDS011;11780;13.904;100.620;2022-07-23T01:52:01;12.73;;;7.60;;
23222;SDS011;11780;13.904;100.620;2022-07-23T01:54:35;17.65;;;7.82;;
23222;SDS011;11780;13.904;100.620;2022-07-23T01:57:08;9.15;;;6.45;;
23222;SDS011;11780;13.904;100.620;2022-07-23T01:59:38;9.65;;;5.93;;
23222;SDS011;11780;13.904;100.620;2022-07-23T02:02:11;12.07;;;6.50;;
23222;SDS011;11780;13.904;100.620;2022-07-23T02:04:41;10.63;;;6.47;;
23222;SDS011;11780;13.904;100.620;2022-07-23T02:07:15;11.68;;;6.50;;
23222;SDS011;11780;13.904;100.620;2022-07-23T02:09:45;9.63;;;5.90;;
23222;SDS011;11780;13.904;100.620;2022-07-23T02:12:16;11.20;;;5.53;;
23222;SDS011;11780;13.904;100.620;2022-07-23T02:14:46;11.55;;;6.22;;
23222;SDS011;11780;13.904;100.620;2022-07-23T02:17:16;10.57;;;5.00;;
23222;SDS011;11780;13.904;100.620;2022-07-23T02:19:46;7.70;;;4.82;;
23222;SDS011;11780;13.904;100.620;2022-07-23T02:22:16;8.65;;;5.07;;
23222;SDS011;11780;13.904;100.620;2022-07-23T02:27:18;8.98;;;4.88;;
23222;SDS011;11780;13.904;100.620;2022-07-23T02:29:49;9.15;;;4.72;;
23222;SDS011;11780;13.904;100.620;2022-07-23T02:32:19;8.23;;;5.77;;
23222;SDS011;11780;13.904;100.620;2022-07-23T02:34:53;9.20;;;5.22;;
23222;SDS011;11780;13.904;100.620;2022-07-23T02:37:23;8.48;;;5.10;;
23222;SDS011;11780;13.904;100.620;2022-07-23T02:39:54;10.13;;;5.13;;
23222;SDS011;11780;13.904;100.620;2022-07-23T02:42:24;7.27;;;5.07;;
23222;SDS011;11780;13.904;100.620;2022-07-23T02:44:54;8.05;;;5.18;;
23222;SDS011;11780;13.904;100.620;2022-07-23T02:47:24;12.32;;;5.93;;
23222;SDS011;11780;13.904;100.620;2022-07-23T02:49:56;11.85;;;5.47;;
23222;SDS011;11780;13.904;100.620;2022-07-23T02:54:30;13.35;;;6.13;;
23222;SDS011;11780;13.904;100.620;2022-07-23T02:57:02;11.35;;;5.63;;
23222;SDS011;11780;13.904;100.620;2022-07-23T02:59:34;10.73;;;5.60;;
23222;SDS011;11780;13.904;100.620;2022-07-23T03:02:04;11.13;;;5.40;;
23222;SDS011;11780;13.904;100.620;2022-07-23T03:04:34;7.45;;;5.30;;
23222;SDS011;11780;13.904;100.620;2022-07-23T03:07:05;8.40;;;5.53;;
23222;SDS011;11780;13.904;100.620;2022-07-23T03:09:35;8.75;;;5.40;;
23222;SDS011;11780;13.904;100.620;2022-07-23T03:12:07;10.10;;;5.15;;
23222;SDS011;11780;13.904;100.620;2022-07-23T03:14:40;7.85;;;5.68;;
23222;SDS011;11780;13.904;100.620;2022-07-23T03:17:11;10.20;;;5.35;;
23222;SDS011;11780;13.904;100.620;2022-07-23T03:19:41;10.20;;;5.80;;
23222;SDS011;11780;13.904;100.620;2022-07-23T03:22:11;8.00;;;5.57;;
23222;SDS011;11780;13.904;100.620;2022-07-23T03:24:42;9.90;;;5.90;;
23222;SDS011;11780;13.904;100.620;2022-07-23T03:27:28;9.55;;;5.45;;
23222;SDS011;11780;13.904;100.620;2022-07-23T03:30:00;9.65;;;5.18;;
23222;SDS011;11780;13.904;100.620;2022-07-23T03:32:30;7.32;;;4.63;;
23222;SDS011;11780;13.904;100.620;2022-07-23T03:35:00;9.02;;;4.43;;
23222;SDS011;11780;13.904;100.620;2022-07-23T03:37:34;11.40;;;3.97;;
23222;SDS011;11780;13.904;100.620;2022-07-23T03:40:05;11.10;;;3.67;;
23222;SDS011;11780;13.904;100.620;2022-07-23T03:42:35;10.20;;;3.88;;
23222;SDS011;11780;13.904;100.620;2022-07-23T03:45:06;5.53;;;3.35;;
23222;SDS011;11780;13.904;100.620;2022-07-23T03:47:36;5.88;;;3.15;;
23222;SDS011;11780;13.904;100.620;2022-07-23T03:50:08;4.78;;;2.67;;
23222;SDS011;11780;13.904;100.620;2022-07-23T03:52:38;8.10;;;2.92;;
23222;SDS011;11780;13.904;100.620;2022-07-23T03:55:11;9.52;;;2.63;;
23222;SDS011;11780;13.904;100.620;2022-07-23T03:57:41;6.80;;;2.67;;
23222;SDS011;11780;13.904;100.620;2022-07-23T04:00:12;9.07;;;2.83;;
23222;SDS011;11780;13.904;100.620;2022-07-23T04:02:45;11.35;;;5.43;;
23222;SDS011;11780;13.904;100.620;2022-07-23T04:05:16;12.75;;;5.57;;
23222;SDS011;11780;13.904;100.620;2022-07-23T04:07:51;10.13;;;4.25;;
23222;SDS011;11780;13.904;100.620;2022-07-23T04:10:21;12.05;;;5.40;;
23222;SDS011;11780;13.904;100.620;2022-07-23T04:12:51;14.25;;;5.80;;
23222;SDS011;11780;13.904;100.620;2022-07-23T04:15:21;12.23;;;5.68;;
23222;SDS011;11780;13.904;100.620;2022-07-23T04:17:51;14.38;;;6.18;;
23222;SDS011;11780;13.904;100.620;2022-07-23T04:20:27;15.98;;;6.07;;
23222;SDS011;11780;13.904;100.620;2022-07-23T04:23:00;10.52;;;5.85;;
23222;SDS011;11780;13.904;100.620;2022-07-23T04:25:31;7.03;;;4.88;;
23222;SDS011;11780;13.904;100.620;2022-07-23T04:28:01;10.25;;;4.85;;
23222;SDS011;11780;13.904;100.620;2022-07-23T04:30:32;13.30;;;4.28;;
23222;SDS011;11780;13.904;100.620;2022-07-23T04:33:03;10.90;;;4.30;;
23222;SDS011;11780;13.904;100.620;2022-07-23T04:35:38;9.88;;;3.70;;
23222;SDS011;11780;13.904;100.620;2022-07-23T04:38:15;5.32;;;2.83;;
23222;SDS011;11780;13.904;100.620;2022-07-23T04:40:47;7.10;;;3.13;;
23222;SDS011;11780;13.904;100.620;2022-07-23T04:43:19;6.43;;;2.88;;
23222;SDS011;11780;13.904;100.620;2022-07-23T04:45:50;40.15;;;5.32;;
23222;SDS011;11780;13.904;100.620;2022-07-23T04:48:20;7.80;;;2.72;;
23222;SDS011;11780;13.904;100.620;2022-07-23T04:50:58;9.27;;;2.85;;
23222;SDS011;11780;13.904;100.620;2022-07-23T04:53:29;11.35;;;3.33;;
23222;SDS011;11780;13.904;100.620;2022-07-23T04:56:00;5.43;;;2.28;;
23222;SDS011;11780;13.904;100.620;2022-07-23T04:58:31;4.43;;;2.25;;
23222;SDS011;11780;13.904;100.620;2022-07-23T05:01:01;7.05;;;2.30;;
23222;SDS011;11780;13.904;100.620;2022-07-23T05:03:34;4.00;;;2.10;;
23222;SDS011;11780;13.904;100.620;2022-07-23T05:06:04;3.72;;;1.95;;
23222;SDS011;11780;13.904;100.620;2022-07-23T05:08:36;3.90;;;2.60;;
23222;SDS011;11780;13.904;100.620;2022-07-23T05:11:08;6.10;;;1.92;;
23222;SDS011;11780;13.904;100.620;2022-07-23T05:13:39;5.13;;;2.10;;
23222;SDS011;11780;13.904;100.620;2022-07-23T05:16:11;13.48;;;2.15;;
23222;SDS011;11780;13.904;100.620;2022-07-23T05:18:42;8.27;;;2.40;;
23222;SDS011;11780;13.904;100.620;2022-07-23T05:21:12;4.40;;;2.78;;
23222;SDS011;11780;13.904;100.620;2022-07-23T05:23:43;6.70;;;2.97;;
23222;SDS011;11780;13.904;100.620;2022-07-23T05:26:13;3.50;;;2.20;;
23222;SDS011;11780;13.904;100.620;2022-07-23T05:28:44;5.00;;;3.13;;
23222;SDS011;11780;13.904;100.620;2022-07-23T05:31:18;8.10;;;3.10;;
23222;SDS011;11780;13.904;100.620;2022-07-23T05:33:48;5.13;;;3.17;;
23222;SDS011;11780;13.904;100.620;2022-07-23T05:36:20;4.47;;;2.90;;
23222;SDS011;11780;13.904;100.620;2022-07-23T05:38:55;5.65;;;2.40;;
23222;SDS011;11780;13.904;100.620;2022-07-23T05:41:28;5.00;;;2.78;;
23222;SDS011;11780;13.904;100.620;2022-07-23T05:44:01;7.85;;;2.97;;
23222;SDS011;11780;13.904;100.620;2022-07-23T05:46:34;3.30;;;2.58;;
23222;SDS011;11780;13.904;100.620;2022-07-23T05:49:07;27.33;;;3.17;;
23222;SDS011;11780;13.904;100.620;2022-07-23T05:51:56;7.22;;;2.40;;
23222;SDS011;11780;13.904;100.620;2022-07-23T05:54:37;7.88;;;2.50;;
23222;SDS011;11780;13.904;100.620;2022-07-23T05:57:07;7.22;;;2.60;;
23222;SDS011;11780;13.904;100.620;2022-07-23T05:59:38;6.63;;;2.23;;
23222;SDS011;11780;13.904;100.620;2022-07-23T06:02:08;7.90;;;2.20;;
23222;SDS011;11780;13.904;100.620;2022-07-23T06:04:39;79.80;;;5.43;;
23222;SDS011;11780;13.904;100.620;2022-07-23T06:07:29;6.30;;;4.35;;
23222;SDS011;11780;13.904;100.620;2022-07-23T06:09:59;6.47;;;3.72;;
23222;SDS011;11780;13.904;100.620;2022-07-23T06:12:29;6.28;;;4.32;;
23222;SDS011;11780;13.904;100.620;2022-07-23T06:15:00;7.88;;;3.90;;
23222;SDS011;11780;13.904;100.620;2022-07-23T06:17:38;10.57;;;4.30;;
23222;SDS011;11780;13.904;100.620;2022-07-23T06:20:09;8.67;;;4.30;;
23222;SDS011;11780;13.904;100.620;2022-07-23T06:22:41;11.07;;;4.03;;
23222;SDS011;11780;13.904;100.620;2022-07-23T06:25:11;8.60;;;4.00;;
23222;SDS011;11780;13.904;100.620;2022-07-23T06:27:46;6.97;;;4.13;;
23222;SDS011;11780;13.904;100.620;2022-07-23T06:32:51;8.88;;;4.18;;
23222;SDS011;11780;13.904;100.620;2022-07-23T06:35:21;6.95;;;4.10;;
23222;SDS011;11780;13.904;100.620;2022-07-23T06:37:51;7.57;;;5.20;;
23222;SDS011;11780;13.904;100.620;2022-07-23T06:40:21;8.70;;;4.55;;
23222;SDS011;11780;13.904;100.620;2022-07-23T06:42:51;6.40;;;3.80;;
23222;SDS011;11780;13.904;100.620;2022-07-23T06:45:22;8.03;;;4.80;;
23222;SDS011;11780;13.904;100.620;2022-07-23T06:47:52;8.65;;;4.22;;
23222;SDS011;11780;13.904;100.620;2022-07-23T06:50:23;8.15;;;4.32;;
23222;SDS011;11780;13.904;100.620;2022-07-23T06:52:53;6.25;;;4.43;;
23222;SDS011;11780;13.904;100.620;2022-07-23T06:55:23;8.25;;;4.30;;
23222;SDS011;11780;13.904;100.620;2022-07-23T06:57:54;8.77;;;4.80;;
23222;SDS011;11780;13.904;100.620;2022-07-23T07:00:24;13.43;;;6.47;;
23222;SDS011;11780;13.904;100.620;2022-07-23T07:02:57;10.52;;;5.40;;
23222;SDS011;11780;13.904;100.620;2022-07-23T07:05:28;13.30;;;7.60;;
23222;SDS011;11780;13.904;100.620;2022-07-23T07:07:58;10.77;;;7.00;;
23222;SDS011;11780;13.904;100.620;2022-07-23T07:10:28;14.93;;;6.53;;
23222;SDS011;11780;13.904;100.620;2022-07-23T07:12:59;11.68;;;6.65;;
23222;SDS011;11780;13.904;100.620;2022-07-23T07:15:29;11.00;;;6.35;;
23222;SDS011;11780;13.904;100.620;2022-07-23T07:17:59;12.20;;;7.30;;
23222;SDS011;11780;13.904;100.620;2022-07-23T07:20:30;13.13;;;7.50;;
23222;SDS011;11780;13.904;100.620;2022-07-23T07:23:00;13.00;;;6.78;;
23222;SDS011;11780;13.904;100.620;2022-07-23T07:25:30;11.20;;;6.45;;
23222;SDS011;11780;13.904;100.620;2022-07-23T07:28:00;15.50;;;7.93;;
23222;SDS011;11780;13.904;100.620;2022-07-23T07:30:32;19.70;;;7.85;;
23222;SDS011;11780;13.904;100.620;2022-07-23T07:33:02;12.02;;;7.35;;
23222;SDS011;11780;13.904;100.620;2022-07-23T07:35:32;18.92;;;8.60;;
23222;SDS011;11780;13.904;100.620;2022-07-23T07:38:02;13.90;;;7.85;;
23222;SDS011;11780;13.904;100.620;2022-07-23T07:40:33;7.90;;;6.88;;
23222;SDS011;11780;13.904;100.620;2022-07-23T07:43:03;10.15;;;6.88;;
23222;SDS011;11780;13.904;100.620;2022-07-23T07:45:33;12.75;;;6.80;;
23222;SDS011;11780;13.904;100.620;2022-07-23T07:48:04;11.95;;;8.60;;
23222;SDS011;11780;13.904;100.620;2022-07-23T07:50:34;13.05;;;7.30;;
23222;SDS011;11780;13.904;100.620;2022-07-23T07:53:05;11.73;;;7.03;;
23222;SDS011;11780;13.904;100.620;2022-07-23T07:55:35;10.20;;;7.22;;
23222;SDS011;11780;13.904;100.620;2022-07-23T07:58:06;13.97;;;6.70;;
23222;SDS011;11780;13.904;100.620;2022-07-23T08:00:36;14.50;;;7.60;;
23222;SDS011;11780;13.904;100.620;2022-07-23T08:03:06;15.00;;;7.90;;
23222;SDS011;11780;13.904;100.620;2022-07-23T08:05:37;9.45;;;6.88;;
23222;SDS011;11780;13.904;100.620;2022-07-23T08:08:07;13.30;;;6.50;;
23222;SDS011;11780;13.904;100.620;2022-07-23T08:10:39;9.82;;;6.00;;
23222;SDS011;11780;13.904;100.620;2022-07-23T08:13:12;9.55;;;6.20;;
23222;SDS011;11780;13.904;100.620;2022-07-23T08:15:44;13.23;;;6.60;;
23222;SDS011;11780;13.904;100.620;2022-07-23T08:18:14;8.30;;;6.00;;
23222;SDS011;11780;13.904;100.620;2022-07-23T08:20:45;14.25;;;5.80;;
23222;SDS011;11780;13.904;100.620;2022-07-23T08:23:15;9.65;;;6.55;;
23222;SDS011;11780;13.904;100.620;2022-07-23T08:25:52;10.93;;;6.22;;
23222;SDS011;11780;13.904;100.620;2022-07-23T08:28:23;13.10;;;6.70;;
23222;SDS011;11780;13.904;100.620;2022-07-23T08:30:53;10.25;;;5.47;;
23222;SDS011;11780;13.904;100.620;2022-07-23T08:33:23;8.93;;;5.93;;
23222;SDS011;11780;13.904;100.620;2022-07-23T08:36:00;6.68;;;5.28;;
23222;SDS011;11780;13.904;100.620;2022-07-23T08:38:32;10.07;;;5.30;;
23222;SDS011;11780;13.904;100.620;2022-07-23T08:41:03;10.38;;;5.70;;
23222;SDS011;11780;13.904;100.620;2022-07-23T08:43:36;11.80;;;5.55;;
23222;SDS011;11780;13.904;100.620;2022-07-23T08:46:07;11.17;;;5.73;;
23222;SDS011;11780;13.904;100.620;2022-07-23T08:48:38;9.53;;;5.73;;
23222;SDS011;11780;13.904;100.620;2022-07-23T08:51:08;10.18;;;5.88;;
23222;SDS011;11780;13.904;100.620;2022-07-23T08:53:39;12.52;;;5.82;;
23222;SDS011;11780;13.904;100.620;2022-07-23T08:58:40;8.38;;;5.22;;
23222;SDS011;11780;13.904;100.620;2022-07-23T09:01:10;11.05;;;5.03;;
23222;SDS011;11780;13.904;100.620;2022-07-23T09:03:41;11.20;;;5.15;;
23222;SDS011;11780;13.904;100.620;2022-07-23T09:06:14;10.48;;;5.05;;
23222;SDS011;11780;13.904;100.620;2022-07-23T09:08:44;11.88;;;5.95;;
23222;SDS011;11780;13.904;100.620;2022-07-23T09:11:16;9.93;;;5.35;;
23222;SDS011;11780;13.904;100.620;2022-07-23T09:13:48;14.52;;;5.70;;
23222;SDS011;11780;13.904;100.620;2022-07-23T09:16:27;5.53;;;4.38;;
23222;SDS011;11780;13.904;100.620;2022-07-23T09:19:00;9.13;;;4.55;;
23222;SDS011;11780;13.904;100.620;2022-07-23T09:21:35;11.43;;;5.00;;
23222;SDS011;11780;13.904;100.620;2022-07-23T09:24:10;7.47;;;4.55;;
23222;SDS011;11780;13.904;100.620;2022-07-23T09:26:45;9.65;;;4.10;;
23222;SDS011;11780;13.904;100.620;2022-07-23T09:29:17;6.43;;;3.85;;
23222;SDS011;11780;13.904;100.620;2022-07-23T09:34:30;6.55;;;3.88;;
23222;SDS011;11780;13.904;100.620;2022-07-23T09:37:15;5.25;;;3.40;;
23222;SDS011;11780;13.904;100.620;2022-07-23T09:39:47;4.28;;;3.20;;
23222;SDS011;11780;13.904;100.620;2022-07-23T09:42:19;5.10;;;3.53;;
23222;SDS011;11780;13.904;100.620;2022-07-23T09:44:53;6.45;;;2.80;;
23222;SDS011;11780;13.904;100.620;2022-07-23T09:47:29;5.05;;;3.05;;
23222;SDS011;11780;13.904;100.620;2022-07-23T09:50:04;5.80;;;2.70;;
23222;SDS011;11780;13.904;100.620;2022-07-23T09:52:44;7.88;;;3.28;;
23222;SDS011;11780;13.904;100.620;2022-07-23T09:55:17;7.50;;;3.17;;
23222;SDS011;11780;13.904;100.620;2022-07-23T09:57:48;4.32;;;2.90;;
23222;SDS011;11780;13.904;100.620;2022-07-23T10:00:26;4.45;;;3.15;;
23222;SDS011;11780;13.904;100.620;2022-07-23T10:02:57;6.10;;;3.38;;
23222;SDS011;11780;13.904;100.620;2022-07-23T10:05:29;6.93;;;2.83;;
23222;SDS011;11780;13.904;100.620;2022-07-23T10:08:06;6.47;;;3.17;;
23222;SDS011;11780;13.904;100.620;2022-07-23T10:10:59;10.90;;;3.20;;
23222;SDS011;11780;13.904;100.620;2022-07-23T10:13:43;6.75;;;2.67;;
23222;SDS011;11780;13.904;100.620;2022-07-23T10:16:56;6.43;;;2.97;;
23222;SDS011;11780;13.904;100.620;2022-07-23T10:19:26;6.15;;;2.97;;
23222;SDS011;11780;13.904;100.620;2022-07-23T10:22:02;4.60;;;2.88;;
23222;SDS011;11780;13.904;100.620;2022-07-23T10:30:03;6.18;;;3.15;;
23222;SDS011;11780;13.904;100.620;2022-07-23T10:32:49;3.42;;;2.80;;
23222;SDS011;11780;13.904;100.620;2022-07-23T10:38:42;5.40;;;2.95;;
23222;SDS011;11780;13.904;100.620;2022-07-23T10:41:34;4.50;;;2.72;;
23222;SDS011;11780;13.904;100.620;2022-07-23T10:47:10;8.95;;;3.17;;
23222;SDS011;11780;13.904;100.620;2022-07-23T10:49:43;4.82;;;2.72;;
23222;SDS011;11780;13.904;100.620;2022-07-23T10:57:47;5.95;;;2.78;;
23222;SDS011;11780;13.904;100.620;2022-07-23T11:00:20;7.18;;;3.03;;
23222;SDS011;11780;13.904;100.620;2022-07-23T11:02:53;3.85;;;2.85;;
23222;SDS011;11780;13.904;100.620;2022-07-23T11:05:41;5.72;;;3.30;;
23222;SDS011;11780;13.904;100.620;2022-07-23T11:08:14;9.30;;;3.35;;
23222;SDS011;11780;13.904;100.620;2022-07-23T11:10:51;11.68;;;4.90;;
23222;SDS011;11780;13.904;100.620;2022-07-23T11:16:46;8.23;;;5.20;;
23222;SDS011;11780;13.904;100.620;2022-07-23T11:18:58;18.10;;;6.55;;
23222;SDS011;11780;13.904;100.620;2022-07-23T11:24:00;8.43;;;6.45;;
23222;SDS011;11780;13.904;100.620;2022-07-23T11:32:24;11.27;;;7.38;;
23222;SDS011;11780;13.904;100.620;2022-07-23T11:34:58;12.63;;;6.80;;
23222;SDS011;11780;13.904;100.620;2022-07-23T11:37:33;13.73;;;7.38;;
23222;SDS011;11780;13.904;100.620;2022-07-23T11:40:10;9.80;;;6.00;;
23222;SDS011;11780;13.904;100.620;2022-07-23T11:45:40;9.73;;;6.72;;
23222;SDS011;11780;13.904;100.620;2022-07-23T11:48:31;15.68;;;6.85;;
23222;SDS011;11780;13.904;100.620;2022-07-23T11:51:07;11.30;;;6.47;;
23222;SDS011;11780;13.904;100.620;2022-07-23T11:53:37;11.90;;;6.43;;
23222;SDS011;11780;13.904;100.620;2022-07-23T11:56:08;11.65;;;7.38;;
23222;SDS011;11780;13.904;100.620;2022-07-23T11:58:40;14.32;;;7.93;;
23222;SDS011;11780;13.904;100.620;2022-07-23T12:01:27;16.20;;;10.00;;
23222;SDS011;11780;13.904;100.620;2022-07-23T12:03:57;13.63;;;8.43;;
23222;SDS011;11780;13.904;100.620;2022-07-23T12:06:28;9.57;;;7.15;;
23222;SDS011;11780;13.904;100.620;2022-07-23T12:09:02;14.25;;;6.90;;
23222;SDS011;11780;13.904;100.620;2022-07-23T12:11:32;12.85;;;6.72;;
23222;SDS011;11780;13.904;100.620;2022-07-23T12:14:03;15.80;;;6.30;;
23222;SDS011;11780;13.904;100.620;2022-07-23T12:16:33;11.82;;;6.43;;
23222;SDS011;11780;13.904;100.620;2022-07-23T12:19:03;10.65;;;5.70;;
23222;SDS011;11780;13.904;100.620;2022-07-23T12:21:34;13.55;;;8.60;;
23222;SDS011;11780;13.904;100.620;2022-07-23T12:24:05;22.10;;;16.67;;
23222;SDS011;11780;13.904;100.620;2022-07-23T12:26:37;12.20;;;9.73;;
23222;SDS011;11780;13.904;100.620;2022-07-23T12:29:07;13.70;;;8.63;;
23222;SDS011;11780;13.904;100.620;2022-07-23T12:31:38;15.37;;;7.77;;
23222;SDS011;11780;13.904;100.620;2022-07-23T12:36:48;11.30;;;6.18;;
23222;SDS011;11780;13.904;100.620;2022-07-23T12:39:31;10.07;;;6.93;;
23222;SDS011;11780;13.904;100.620;2022-07-23T12:42:02;11.13;;;6.05;;
23222;SDS011;11780;13.904;100.620;2022-07-23T12:44:32;7.77;;;5.87;;
23222;SDS011;11780;13.904;100.620;2022-07-23T12:47:05;10.13;;;6.15;;
23222;SDS011;11780;13.904;100.620;2022-07-23T12:49:35;12.45;;;5.50;;
23222;SDS011;11780;13.904;100.620;2022-07-23T12:52:16;10.87;;;6.23;;
23222;SDS011;11780;13.904;100.620;2022-07-23T12:54:46;7.97;;;5.78;;
23222;SDS011;11780;13.904;100.620;2022-07-23T12:57:17;10.83;;;5.47;;
23222;SDS011;11780;13.904;100.620;2022-07-23T12:59:47;9.48;;;5.13;;
23222;SDS011;11780;13.904;100.620;2022-07-23T13:02:17;11.35;;;5.28;;
23222;SDS011;11780;13.904;100.620;2022-07-23T13:04:48;9.05;;;5.50;;
23222;SDS011;11780;13.904;100.620;2022-07-23T13:07:18;10.57;;;5.03;;
23222;SDS011;11780;13.904;100.620;2022-07-23T13:09:49;10.60;;;5.05;;
23222;SDS011;11780;13.904;100.620;2022-07-23T13:12:19;9.00;;;5.07;;
23222;SDS011;11780;13.904;100.620;2022-07-23T13:14:49;10.52;;;6.32;;
23222;SDS011;11780;13.904;100.620;2022-07-23T13:17:20;13.82;;;6.40;;
23222;SDS011;11780;13.904;100.620;2022-07-23T13:19:50;16.63;;;6.43;;
23222;SDS011;11780;13.904;100.620;2022-07-23T13:22:20;10.68;;;5.60;;
23222;SDS011;11780;13.904;100.620;2022-07-23T13:24:50;11.05;;;5.78;;
23222;SDS011;11780;13.904;100.620;2022-07-23T13:27:21;11.90;;;5.80;;
23222;SDS011;11780;13.904;100.620;2022-07-23T13:29:52;9.30;;;4.63;;
23222;SDS011;11780;13.904;100.620;2022-07-23T13:32:22;11.07;;;6.17;;
23222;SDS011;11780;13.904;100.620;2022-07-23T13:34:52;15.30;;;5.47;;
23222;SDS011;11780;13.904;100.620;2022-07-23T13:37:23;10.30;;;6.07;;
23222;SDS011;11780;13.904;100.620;2022-07-23T13:39:53;12.95;;;6.78;;
23222;SDS011;11780;13.904;100.620;2022-07-23T13:42:23;15.65;;;10.30;;
23222;SDS011;11780;13.904;100.620;2022-07-23T13:44:53;14.07;;;7.07;;
23222;SDS011;11780;13.904;100.620;2022-07-23T13:47:23;12.10;;;5.80;;
23222;SDS011;11780;13.904;100.620;2022-07-23T13:49:54;14.75;;;5.28;;
23222;SDS011;11780;13.904;100.620;2022-07-23T13:52:25;15.13;;;6.45;;
23222;SDS011;11780;13.904;100.620;2022-07-23T13:54:55;11.98;;;5.78;;
23222;SDS011;11780;13.904;100.620;2022-07-23T13:57:26;13.52;;;6.03;;
23222;SDS011;11780;13.904;100.620;2022-07-23T13:59:56;9.20;;;5.25;;
23222;SDS011;11780;13.904;100.620;2022-07-23T14:02:26;10.02;;;5.82;;
23222;SDS011;11780;13.904;100.620;2022-07-23T14:04:57;10.65;;;5.43;;
23222;SDS011;11780;13.904;100.620;2022-07-23T14:07:27;11.60;;;5.68;;
23222;SDS011;11780;13.904;100.620;2022-07-23T14:09:57;11.27;;;5.75;;
23222;SDS011;11780;13.904;100.620;2022-07-23T14:12:28;10.55;;;6.00;;
23222;SDS011;11780;13.904;100.620;2022-07-23T14:15:00;11.25;;;6.30;;
23222;SDS011;11780;13.904;100.620;2022-07-23T14:17:31;12.70;;;7.15;;
23222;SDS011;11780;13.904;100.620;2022-07-23T14:20:02;8.95;;;6.05;;
23222;SDS011;11780;13.904;100.620;2022-07-23T14:22:34;12.48;;;6.15;;
23222;SDS011;11780;13.904;100.620;2022-07-23T14:25:06;13.18;;;6.00;;
23222;SDS011;11780;13.904;100.620;2022-07-23T14:27:37;13.25;;;6.20;;
23222;SDS011;11780;13.904;100.620;2022-07-23T14:30:09;14.15;;;5.88;;
23222;SDS011;11780;13.904;100.620;2022-07-23T14:32:39;14.48;;;6.47;;
23222;SDS011;11780;13.904;100.620;2022-07-23T14:35:10;13.10;;;7.43;;
23222;SDS011;11780;13.904;100.620;2022-07-23T14:37:40;10.45;;;5.63;;
23222;SDS011;11780;13.904;100.620;2022-07-23T14:40:10;9.43;;;5.83;;
23222;SDS011;11780;13.904;100.620;2022-07-23T14:42:41;16.50;;;5.85;;
23222;SDS011;11780;13.904;100.620;2022-07-23T14:45:11;8.80;;;5.32;;
23222;SDS011;11780;13.904;100.620;2022-07-23T14:47:41;10.07;;;5.77;;
23222;SDS011;11780;13.904;100.620;2022-07-23T14:50:14;11.68;;;6.25;;
23222;SDS011;11780;13.904;100.620;2022-07-23T14:52:44;14.10;;;6.32;;
23222;SDS011;11780;13.904;100.620;2022-07-23T14:57:48;11.50;;;5.88;;
23222;SDS011;11780;13.904;100.620;2022-07-23T15:00:18;9.70;;;5.63;;
23222;SDS011;11780;13.904;100.620;2022-07-23T15:02:50;11.88;;;6.18;;
23222;SDS011;11780;13.904;100.620;2022-07-23T15:05:22;9.13;;;5.85;;
23222;SDS011;11780;13.904;100.620;2022-07-23T15:07:53;10.33;;;5.87;;
23222;SDS011;11780;13.904;100.620;2022-07-23T15:10:23;9.48;;;6.07;;
23222;SDS011;11780;13.904;100.620;2022-07-23T15:12:53;11.77;;;5.20;;
23222;SDS011;11780;13.904;100.620;2022-07-23T15:15:24;12.18;;;6.18;;
23222;SDS011;11780;13.904;100.620;2022-07-23T15:17:54;7.53;;;4.90;;
23222;SDS011;11780;13.904;100.620;2022-07-23T15:20:24;9.57;;;5.97;;
23222;SDS011;11780;13.904;100.620;2022-07-23T15:23:02;9.73;;;5.40;;
23222;SDS011;11780;13.904;100.620;2022-07-23T15:25:34;9.18;;;5.97;;
23222;SDS011;11780;13.904;100.620;2022-07-23T15:28:04;9.70;;;6.00;;
23222;SDS011;11780;13.904;100.620;2022-07-23T15:30:35;10.53;;;6.43;;